Time;durP1;ratioP1;P1;durP2;ratioP2;P2;SDS_P1;SDS_P2;PMS_P1;PMS_P2;Temp;Humidity;BMP_temperature;BMP_pressure;BME280_temperature;BME280_humidity;BME280_pressure;Samples;Min_cycle;Max_cycle;Signal;HPM_P1;HPM_P2
2023/05/10 00:01:38;;;;;;;5.17;3.03;;;7.30;99.90;;;;;;4145794;28;20038;-69
2023/05/10 00:03:40;;;;;;;7.50;2.83;;;7.30;99.90;;;;;;4144491;28;20041;-71
2023/05/10 00:05:41;;;;;;;4.27;3.13;;;7.30;99.90;;;;;;4147024;28;20532;-72
2023/05/10 00:07:44;;;;;;;5.30;3.47;;;7.20;99.90;;;;;;4161349;28;20474;-71
2023/05/10 00:09:45;;;;;;;4.67;2.93;;;7.20;99.90;;;;;;4161581;28;20029;-66
2023/05/10 00:11:46;;;;;;;4.07;3.03;;;7.20;99.90;;;;;;4160782;28;20083;-67
2023/05/10 00:13:47;;;;;;;6.47;3.37;;;7.20;99.90;;;;;;4151259;28;20084;-72
2023/05/10 00:15:49;;;;;;;12.57;3.37;;;7.20;99.90;;;;;;4145306;28;20033;-66
2023/05/10 00:17:50;;;;;;;4.60;2.67;;;7.10;99.90;;;;;;4144468;28;20034;-70
2023/05/10 00:19:51;;;;;;;7.07;3.73;;;7.10;99.90;;;;;;4145039;28;20103;-66
2023/05/10 00:21:52;;;;;;;6.30;3.20;;;7.10;99.90;;;;;;4144648;28;20029;-67
2023/05/10 00:23:54;;;;;;;9.90;3.73;;;7.00;99.90;;;;;;4145756;28;20077;-72
2023/05/10 00:25:56;;;;;;;8.10;4.17;;;6.90;99.90;;;;;;4144654;28;20480;-72
2023/05/10 00:27:57;;;;;;;7.17;4.07;;;6.90;99.90;;;;;;4146697;28;20029;-69
2023/05/10 00:29:58;;;;;;;5.47;3.40;;;6.80;99.90;;;;;;4127238;28;20069;-69
2023/05/10 00:31:59;;;;;;;7.23;3.83;;;6.90;99.90;;;;;;4145579;28;20034;-72
2023/05/10 00:34:00;;;;;;;6.80;3.43;;;6.80;99.90;;;;;;4154559;28;20478;-58
2023/05/10 00:36:01;;;;;;;9.07;3.60;;;6.80;99.90;;;;;;4161252;28;20041;-70
2023/05/10 00:38:02;;;;;;;5.13;3.53;;;6.80;99.90;;;;;;4160097;28;20053;-58
2023/05/10 00:40:04;;;;;;;4.67;3.40;;;6.80;99.90;;;;;;4154942;28;20498;-61
2023/05/10 00:42:05;;;;;;;3.70;3.23;;;6.80;99.90;;;;;;4144834;28;20406;-68
2023/05/10 00:44:07;;;;;;;5.90;3.17;;;6.80;99.90;;;;;;4144852;28;20088;-71
2023/05/10 00:46:08;;;;;;;5.77;3.27;;;6.80;99.90;;;;;;4144426;28;20487;-71
2023/05/10 00:48:09;;;;;;;8.00;3.27;;;6.80;99.90;;;;;;4144638;28;20123;-70
2023/05/10 00:50:10;;;;;;;6.10;3.20;;;6.70;99.90;;;;;;4144592;28;20512;-69
2023/05/10 00:52:11;;;;;;;4.67;3.43;;;6.70;99.90;;;;;;4159483;28;20449;-55
2023/05/10 00:54:14;;;;;;;8.67;3.60;;;6.70;99.90;;;;;;4161915;28;20071;-58
2023/05/10 00:56:16;;;;;;;3.87;2.93;;;6.70;99.90;;;;;;4160156;28;20038;-70
2023/05/10 00:58:17;;;;;;;3.70;3.17;;;6.70;99.90;;;;;;4161276;28;20045;-65
2023/05/10 01:00:18;;;;;;;7.70;3.90;;;6.70;99.90;;;;;;4154872;28;20038;-59
2023/05/10 01:02:19;;;;;;;5.50;3.40;;;6.60;99.90;;;;;;4159948;28;20079;-67
2023/05/10 01:04:25;;;;;;;5.50;3.30;;;6.60;99.90;;;;;;4160105;28;20029;-62
2023/05/10 01:06:26;;;;;;;5.47;3.43;;;6.60;99.90;;;;;;4161619;28;20088;-65
2023/05/10 01:08:28;;;;;;;5.30;3.67;;;6.60;99.90;;;;;;4160519;28;20091;-58
2023/05/10 01:10:30;;;;;;;6.17;3.77;;;6.60;99.90;;;;;;4161657;28;20033;-69
2023/05/10 01:12:31;;;;;;;6.30;3.33;;;6.60;99.90;;;;;;4160614;28;20065;-59
2023/05/10 01:14:33;;;;;;;4.70;3.47;;;6.60;99.90;;;;;;4164261;28;20033;-72
2023/05/10 01:16:38;;;;;;;4.43;3.23;;;6.50;99.90;;;;;;4154436;28;20092;-69
2023/05/10 01:18:41;;;;;;;4.50;3.27;;;6.50;99.90;;;;;;4157512;28;20107;-69
2023/05/10 01:20:48;;;;;;;4.67;2.67;;;6.50;99.90;;;;;;4164274;28;20079;-70
2023/05/10 01:23:04;;;;;;;6.57;3.60;;;6.50;99.90;;;;;;4151919;28;20050;-70
2023/05/10 01:25:37;;;;;;;4.73;3.37;;;6.40;99.90;;;;;;4147725;28;20136;-63
2023/05/10 01:28:09;;;;;;;6.37;3.50;;;6.40;99.90;;;;;;4158031;28;20033;-57
2023/05/10 01:30:28;;;;;;;6.40;3.57;;;6.40;99.90;;;;;;4164104;28;20025;-62
2023/05/10 01:32:50;;;;;;;6.27;3.57;;;6.30;99.90;;;;;;4164534;28;20029;-71
2023/05/10 01:35:07;;;;;;;7.47;3.90;;;6.30;99.90;;;;;;4160935;28;20041;-68
2023/05/10 01:37:13;;;;;;;4.60;3.57;;;6.30;99.90;;;;;;4164431;28;20034;-58
2023/05/10 01:39:45;;;;;;;4.90;3.80;;;6.20;99.90;;;;;;4163267;28;20099;-69
2023/05/10 01:41:46;;;;;;;6.20;3.60;;;6.20;99.90;;;;;;4161646;28;20038;-56
2023/05/10 01:44:03;;;;;;;7.83;4.00;;;6.30;99.90;;;;;;4146861;28;20100;-66
2023/05/10 01:46:10;;;;;;;4.87;3.67;;;6.30;99.90;;;;;;4147995;28;20430;-64
2023/05/10 01:48:14;;;;;;;5.50;4.03;;;6.20;99.90;;;;;;4146973;28;20033;-60
2023/05/10 01:50:19;;;;;;;8.53;3.57;;;6.20;99.90;;;;;;4148647;28;20033;-58
2023/05/10 01:52:28;;;;;;;6.43;3.77;;;6.20;99.90;;;;;;4146950;28;20422;-71
2023/05/10 01:54:32;;;;;;;7.33;3.67;;;6.10;99.90;;;;;;4147837;28;20025;-61
2023/05/10 01:56:37;;;;;;;6.57;3.60;;;6.10;99.90;;;;;;4146850;28;20087;-58
2023/05/10 01:58:42;;;;;;;6.50;3.70;;;6.00;99.90;;;;;;4147402;28;20045;-57
2023/05/10 02:00:45;;;;;;;7.20;3.40;;;6.00;99.90;;;;;;4146803;28;20092;-56
2023/05/10 02:02:49;;;;;;;6.80;3.73;;;6.00;99.90;;;;;;4149325;28;20054;-68
2023/05/10 02:04:53;;;;;;;5.40;3.70;;;6.00;99.90;;;;;;4156390;28;20042;-57
2023/05/10 02:06:56;;;;;;;3.87;3.47;;;6.00;99.90;;;;;;4164184;28;20029;-60
2023/05/10 02:08:57;;;;;;;7.40;3.57;;;6.00;99.90;;;;;;4163083;28;20042;-72
2023/05/10 02:10:59;;;;;;;8.83;4.37;;;6.00;99.90;;;;;;4149485;28;20101;-63
2023/05/10 02:13:02;;;;;;;4.80;3.90;;;6.00;99.90;;;;;;4146698;28;20022;-53
2023/05/10 02:15:06;;;;;;;5.03;3.77;;;6.00;99.90;;;;;;4147096;28;20037;-58
2023/05/10 02:17:08;;;;;;;4.90;3.30;;;6.00;99.90;;;;;;4146758;28;20030;-58
2023/05/10 02:19:11;;;;;;;7.83;2.97;;;6.00;99.90;;;;;;4146808;28;20054;-71
2023/05/10 02:21:14;;;;;;;5.27;3.57;;;6.00;99.90;;;;;;4129821;28;20031;-59
2023/05/10 02:23:17;;;;;;;4.97;3.20;;;6.00;99.90;;;;;;4145633;28;20042;-71
2023/05/10 02:25:21;;;;;;;4.37;3.53;;;6.00;99.90;;;;;;4146028;28;20096;-59
2023/05/10 02:27:24;;;;;;;4.13;3.23;;;6.00;99.90;;;;;;4146405;28;20441;-64
2023/05/10 02:29:26;;;;;;;6.40;4.17;;;6.00;99.90;;;;;;4147636;28;20509;-54
2023/05/10 02:31:28;;;;;;;6.60;3.63;;;5.90;99.90;;;;;;4154238;28;20064;-58
2023/05/10 02:33:30;;;;;;;9.30;3.63;;;5.90;99.90;;;;;;4162379;28;20030;-62
2023/05/10 02:35:33;;;;;;;5.90;3.80;;;5.90;99.90;;;;;;4149737;28;20177;-60
2023/05/10 02:37:36;;;;;;;4.97;3.60;;;5.80;99.90;;;;;;4154951;28;20564;-65
2023/05/10 02:39:43;;;;;;;5.23;3.87;;;5.80;99.90;;;;;;4161896;28;20053;-71
2023/05/10 02:41:46;;;;;;;4.90;3.63;;;5.80;99.90;;;;;;4163463;28;20034;-72
2023/05/10 02:43:49;;;;;;;6.07;3.37;;;5.80;99.90;;;;;;4162353;28;20087;-65
2023/05/10 02:45:51;;;;;;;4.97;4.20;;;5.80;99.90;;;;;;4162819;28;20076;-62
2023/05/10 02:47:52;;;;;;;5.07;3.73;;;5.70;99.90;;;;;;4162258;28;20029;-67
2023/05/10 02:49:53;;;;;;;6.13;3.53;;;5.70;99.90;;;;;;4162485;28;20045;-63
2023/05/10 02:51:59;;;;;;;6.43;4.30;;;5.70;99.90;;;;;;4161235;28;20033;-68
2023/05/10 02:54:08;;;;;;;5.63;4.10;;;5.70;99.90;;;;;;4128962;28;20042;-58
2023/05/10 02:56:22;;;;;;;5.63;4.10;;;5.70;99.90;;;;;;4162077;28;20033;-66
2023/05/10 02:58:23;;;;;;;5.10;3.57;;;5.70;99.90;;;;;;4163022;28;20030;-59
2023/05/10 03:00:25;;;;;;;7.63;4.30;;;5.70;99.90;;;;;;4154409;28;20034;-62
2023/05/10 03:02:26;;;;;;;6.27;3.67;;;5.70;99.90;;;;;;4146184;28;20034;-72
2023/05/10 03:04:28;;;;;;;4.90;3.37;;;5.70;99.90;;;;;;4145727;28;20072;-66
2023/05/10 03:06:29;;;;;;;10.80;4.80;;;5.70;99.90;;;;;;4148921;28;20052;-72
2023/05/10 03:08:30;;;;;;;9.43;3.80;;;5.80;99.90;;;;;;4147747;28;20108;-64
2023/05/10 03:10:33;;;;;;;5.80;3.73;;;5.90;99.90;;;;;;4145705;28;20022;-69
2023/05/10 03:12:53;;;;;;;7.87;4.33;;;6.00;99.90;;;;;;4146633;28;20041;-56
2023/05/10 03:15:00;;;;;;;6.50;3.80;;;6.10;99.90;;;;;;4127615;28;20428;-57
2023/05/10 03:17:29;;;;;;;4.33;3.40;;;6.20;99.90;;;;;;4159448;28;20033;-59
2023/05/10 03:19:45;;;;;;;4.07;3.40;;;6.40;99.90;;;;;;4161740;28;20045;-65
2023/05/10 03:21:51;;;;;;;5.77;3.80;;;6.50;99.90;;;;;;4161620;28;20096;-55
2023/05/10 03:24:04;;;;;;;7.30;3.70;;;6.70;99.90;;;;;;4158475;28;20026;-69
2023/05/10 03:26:05;;;;;;;6.60;3.63;;;6.90;99.90;;;;;;4145953;28;20470;-58
2023/05/10 03:28:08;;;;;;;6.00;3.70;;;7.00;99.90;;;;;;4145424;28;20030;-59
2023/05/10 03:30:12;;;;;;;6.83;3.40;;;7.20;99.90;;;;;;4146059;28;20038;-55
2023/05/10 03:32:13;;;;;;;7.03;3.33;;;7.10;99.90;;;;;;4145055;28;20030;-58
2023/05/10 03:34:14;;;;;;;7.57;3.70;;;7.20;99.90;;;;;;4150625;28;20029;-58
2023/05/10 03:36:15;;;;;;;3.33;3.03;;;7.30;99.90;;;;;;4158670;28;20099;-56
2023/05/10 03:38:16;;;;;;;7.60;3.37;;;7.50;99.90;;;;;;4162039;28;20436;-69
2023/05/10 03:40:18;;;;;;;9.73;4.53;;;7.60;99.90;;;;;;4158899;28;20064;-72
2023/05/10 03:42:19;;;;;;;5.23;3.60;;;7.90;99.90;;;;;;4162425;28;20718;-59
2023/05/10 03:44:20;;;;;;;5.10;3.30;;;7.80;99.90;;;;;;4154841;28;20085;-72
2023/05/10 03:46:21;;;;;;;6.10;3.80;;;7.90;99.90;;;;;;4153115;28;20172;-72
2023/05/10 03:48:22;;;;;;;5.37;3.57;;;7.70;99.90;;;;;;4152705;28;20131;-59
2023/05/10 03:50:24;;;;;;;4.73;3.23;;;7.40;99.90;;;;;;4161596;28;20041;-60
2023/05/10 03:52:25;;;;;;;5.43;3.53;;;7.30;99.90;;;;;;4148271;28;20022;-58
2023/05/10 03:54:26;;;;;;;5.03;3.20;;;7.40;99.90;;;;;;4147433;28;20037;-59
2023/05/10 03:56:27;;;;;;;4.83;3.40;;;7.60;99.90;;;;;;4144440;28;20034;-59
2023/05/10 03:58:28;;;;;;;6.10;4.03;;;7.80;99.90;;;;;;4144760;28;20030;-72
2023/05/10 04:00:30;;;;;;;5.30;3.10;;;7.90;99.90;;;;;;4150480;28;20034;-57
2023/05/10 04:02:31;;;;;;;7.73;3.40;;;8.10;99.90;;;;;;4144254;28;20042;-60
2023/05/10 04:04:32;;;;;;;9.70;3.90;;;8.40;99.90;;;;;;4145342;28;20076;-71
2023/05/10 04:06:33;;;;;;;6.03;3.77;;;8.40;99.90;;;;;;4144632;28;20041;-59
2023/05/10 04:08:34;;;;;;;8.27;3.70;;;8.70;99.90;;;;;;4145819;28;20091;-69
2023/05/10 04:10:35;;;;;;;8.43;3.43;;;8.70;99.90;;;;;;4158007;28;20541;-73
2023/05/10 04:12:36;;;;;;;5.47;3.73;;;8.90;99.90;;;;;;4150521;28;20083;-63
2023/05/10 04:14:38;;;;;;;5.47;3.30;;;9.20;99.90;;;;;;4160558;28;20030;-73
2023/05/10 04:16:39;;;;;;;6.13;3.20;;;9.20;99.90;;;;;;4157832;28;20042;-60
2023/05/10 04:18:40;;;;;;;5.77;2.93;;;9.20;99.90;;;;;;4144373;28;20096;-72
2023/05/10 04:20:42;;;;;;;6.53;3.50;;;9.10;99.90;;;;;;4145348;28;20099;-67
2023/05/10 04:22:43;;;;;;;7.87;3.20;;;9.40;99.90;;;;;;4150474;28;20047;-60
2023/05/10 04:24:44;;;;;;;5.53;3.30;;;9.50;99.90;;;;;;4160307;28;20080;-72
2023/05/10 04:26:45;;;;;;;7.33;3.70;;;9.50;99.90;;;;;;4146973;28;20056;-65
2023/05/10 04:28:47;;;;;;;6.67;3.40;;;9.80;99.90;;;;;;4144719;28;20056;-69
2023/05/10 04:30:48;;;;;;;6.70;3.27;;;10.00;99.90;;;;;;4146330;28;20041;-70
2023/05/10 04:32:49;;;;;;;11.57;3.90;;;9.80;99.90;;;;;;4152240;28;20037;-74
2023/05/10 04:34:53;;;;;;;5.33;3.70;;;9.70;99.90;;;;;;4157260;28;20125;-74
2023/05/10 04:36:54;;;;;;;7.73;4.13;;;9.80;99.90;;;;;;4130171;28;20061;-74
2023/05/10 04:38:55;;;;;;;9.47;4.50;;;9.80;99.90;;;;;;4153229;28;20026;-72
2023/05/10 04:41:07;;;;;;;9.00;4.60;;;10.10;99.90;;;;;;4149015;28;20089;-70
2023/05/10 04:43:08;;;;;;;9.03;3.53;;;10.30;99.90;;;;;;4145217;28;20092;-74
2023/05/10 04:45:10;;;;;;;6.87;3.43;;;10.40;99.90;;;;;;4144127;28;20084;-76
2023/05/10 04:47:12;;;;;;;5.93;3.93;;;10.40;99.90;;;;;;4144037;28;20088;-65
2023/05/10 04:49:14;;;;;;;6.53;3.23;;;10.50;99.90;;;;;;4143134;28;20050;-72
2023/05/10 04:51:15;;;;;;;12.27;4.20;;;10.90;99.90;;;;;;4145299;28;20076;-78
2023/05/10 04:53:16;;;;;;;7.40;3.47;;;11.10;99.90;;;;;;4143969;28;20038;-77
2023/05/10 04:55:17;;;;;;;7.70;3.60;;;11.50;99.90;;;;;;4144541;28;20034;-76
2023/05/10 04:57:18;;;;;;;10.53;3.97;;;11.50;99.90;;;;;;4143659;28;20045;-73
2023/05/10 04:59:19;;;;;;;9.40;3.37;;;11.60;99.90;;;;;;4144450;28;20104;-70
2023/05/10 05:01:20;;;;;;;6.17;3.17;;;11.60;99.90;;;;;;4144018;28;20123;-70
2023/05/10 05:03:22;;;;;;;4.97;3.43;;;11.50;99.90;;;;;;4144151;28;20026;-78
2023/05/10 05:05:23;;;;;;;10.33;3.47;;;11.70;99.90;;;;;;4144773;28;20108;-76
2023/05/10 05:07:24;;;;;;;9.43;3.27;;;11.80;99.90;;;;;;4126197;28;20046;-76
2023/05/10 05:09:25;;;;;;;6.63;3.37;;;12.10;99.90;;;;;;4144645;28;20034;-72
2023/05/10 05:11:26;;;;;;;6.90;3.33;;;12.40;99.90;;;;;;4143939;28;20045;-74
2023/05/10 05:13:27;;;;;;;7.17;2.70;;;12.60;99.90;;;;;;4145011;28;20471;-77
2023/05/10 05:15:30;;;;;;;13.53;4.43;;;12.80;99.90;;;;;;4143711;28;20046;-76
2023/05/10 05:17:31;;;;;;;8.20;3.20;;;13.20;99.90;;;;;;4144756;28;20109;-73
2023/05/10 05:19:32;;;;;;;7.37;2.80;;;13.10;99.90;;;;;;4143641;28;20054;-76
2023/05/10 05:21:33;;;;;;;4.60;2.63;;;12.80;99.90;;;;;;4145082;28;20479;-74
2023/05/10 05:23:34;;;;;;;10.30;3.23;;;12.60;99.90;;;;;;4143892;28;20129;-78
2023/05/10 05:25:36;;;;;;;7.83;3.97;;;12.60;99.90;;;;;;4144238;28;20111;-77
2023/05/10 05:27:37;;;;;;;10.73;3.23;;;12.60;99.90;;;;;;4143703;28;20328;-78
2023/05/10 05:29:38;;;;;;;3.37;2.73;;;12.40;99.90;;;;;;4144527;28;20491;-72
2023/05/10 05:31:39;;;;;;;5.53;2.70;;;12.40;99.90;;;;;;4143995;28;20037;-77
2023/05/10 05:33:40;;;;;;;5.83;2.80;;;12.50;99.90;;;;;;4144005;28;20030;-73
2023/05/10 05:35:47;;;;;;;6.07;2.47;;;12.50;99.90;;;;;;4144064;28;20030;-77
2023/05/10 05:37:48;;;;;;;6.53;3.00;;;12.50;99.90;;;;;;4142805;28;20088;-77
2023/05/10 05:39:49;;;;;;;4.70;2.57;;;12.40;99.90;;;;;;4144214;28;20096;-77
2023/05/10 05:41:50;;;;;;;4.07;2.63;;;12.30;99.90;;;;;;4143630;28;20494;-71
2023/05/10 05:43:52;;;;;;;3.40;2.87;;;12.30;99.90;;;;;;4144818;28;20116;-72
2023/05/10 05:45:53;;;;;;;5.50;2.70;;;12.40;99.90;;;;;;4143241;28;20034;-74
2023/05/10 05:47:54;;;;;;;3.43;2.40;;;12.50;99.90;;;;;;4144670;28;20038;-74
2023/05/10 05:49:55;;;;;;;7.50;3.03;;;12.60;99.90;;;;;;4143329;28;20103;-77
2023/05/10 05:52:01;;;;;;;5.17;2.30;;;12.70;99.90;;;;;;4144760;28;20340;-76
2023/05/10 05:54:04;;;;;;;2.63;2.17;;;12.80;99.90;;;;;;4143464;28;20046;-74
2023/05/10 05:56:05;;;;;;;3.80;2.13;;;12.70;99.90;;;;;;4144573;28;20038;-77
2023/05/10 05:58:06;;;;;;;4.67;2.50;;;12.60;99.90;;;;;;4143314;28;20014;-77
2023/05/10 06:00:08;;;;;;;5.63;2.53;;;12.40;99.90;;;;;;4146053;28;20046;-77
2023/05/10 06:02:10;;;;;;;6.47;2.33;;;12.10;99.90;;;;;;4146493;28;20105;-77
2023/05/10 06:04:12;;;;;;;7.90;2.30;;;12.20;99.90;;;;;;4146836;28;20037;-75
2023/05/10 06:06:13;;;;;;;2.80;1.70;;;12.40;99.90;;;;;;4146992;28;20037;-77
2023/05/10 06:08:14;;;;;;;4.00;2.07;;;12.60;99.90;;;;;;4146646;28;20034;-73
2023/05/10 06:10:15;;;;;;;3.67;1.63;;;12.80;99.90;;;;;;4146862;28;20033;-74
2023/05/10 06:12:17;;;;;;;6.03;2.60;;;12.90;99.50;;;;;;4146266;28;20088;-76
2023/05/10 06:14:20;;;;;;;3.20;1.70;;;13.00;99.30;;;;;;4147285;28;20088;-74
2023/05/10 06:16:22;;;;;;;2.60;1.50;;;13.10;99.10;;;;;;4145722;28;20045;-75
2023/05/10 06:18:23;;;;;;;3.13;1.40;;;12.90;98.40;;;;;;4147320;28;20544;-75
2023/05/10 06:20:24;;;;;;;9.97;2.00;;;12.80;98.30;;;;;;4145765;28;20057;-68
2023/05/10 06:22:26;;;;;;;3.43;1.97;;;12.50;98.70;;;;;;4146717;28;20031;-77
2023/05/10 06:24:27;;;;;;;3.00;1.80;;;12.40;98.90;;;;;;4145595;28;20034;-77
2023/05/10 06:26:28;;;;;;;2.83;1.50;;;12.30;99.00;;;;;;4146689;28;20050;-76
2023/05/10 06:28:32;;;;;;;1.80;1.53;;;12.10;99.50;;;;;;4146250;28;20030;-77
2023/05/10 06:30:33;;;;;;;2.57;1.80;;;12.00;99.70;;;;;;4146968;28;20046;-68
2023/05/10 06:32:34;;;;;;;2.27;1.90;;;12.10;99.80;;;;;;4146038;28;20025;-78
2023/05/10 06:34:35;;;;;;;5.10;1.70;;;12.40;99.70;;;;;;4145884;28;20045;-77
2023/05/10 06:36:36;;;;;;;2.20;1.93;;;12.50;99.40;;;;;;4146050;28;20042;-78
2023/05/10 06:38:37;;;;;;;2.50;1.40;;;12.40;99.60;;;;;;4145765;28;20038;-77
2023/05/10 06:40:42;;;;;;;2.87;1.80;;;12.40;99.60;;;;;;4128865;28;20051;-78
2023/05/10 06:42:44;;;;;;;2.00;1.67;;;12.60;99.60;;;;;;4145810;28;20034;-78
2023/05/10 06:44:45;;;;;;;2.00;1.40;;;12.80;99.50;;;;;;4146674;28;20100;-76
2023/05/10 06:46:46;;;;;;;1.90;1.70;;;13.00;99.30;;;;;;4145591;28;20092;-76
2023/05/10 06:48:48;;;;;;;2.10;1.90;;;12.80;99.30;;;;;;4146932;28;20022;-77
2023/05/10 06:50:49;;;;;;;4.17;1.87;;;12.80;99.40;;;;;;4145393;28;20030;-78
2023/05/10 06:52:50;;;;;;;2.47;1.80;;;13.00;99.40;;;;;;4146798;28;20030;-79
2023/05/10 06:54:51;;;;;;;3.47;1.70;;;12.90;99.40;;;;;;4145538;28;20081;-73
2023/05/10 06:56:53;;;;;;;3.50;2.27;;;12.90;99.50;;;;;;4146328;28;20042;-78
2023/05/10 06:58:54;;;;;;;2.60;2.07;;;13.00;99.50;;;;;;4145540;28;20022;-77
2023/05/10 07:01:02;;;;;;;2.10;1.77;;;13.10;99.70;;;;;;4146569;28;20104;-78
2023/05/10 07:03:03;;;;;;;4.67;1.97;;;13.30;99.40;;;;;;4145536;28;20026;-72
2023/05/10 07:05:05;;;;;;;4.43;2.17;;;13.40;99.40;;;;;;4146381;28;20026;-71
2023/05/10 07:07:06;;;;;;;2.90;1.77;;;13.60;99.20;;;;;;4145442;28;20528;-77
2023/05/10 07:09:07;;;;;;;2.37;1.80;;;13.50;99.10;;;;;;4146066;28;20085;-77
2023/05/10 07:11:08;;;;;;;2.17;1.80;;;13.50;99.00;;;;;;4144849;28;20099;-74
2023/05/10 07:13:10;;;;;;;2.40;2.20;;;13.30;99.10;;;;;;4145389;28;20045;-77
2023/05/10 07:15:11;;;;;;;6.23;2.20;;;13.00;99.40;;;;;;4128549;28;20063;-77
2023/05/10 07:17:12;;;;;;;3.50;2.20;;;13.00;99.60;;;;;;4145044;28;20478;-76
2023/05/10 07:19:13;;;;;;;2.37;1.73;;;13.10;99.60;;;;;;4146265;28;20104;-76
2023/05/10 07:21:15;;;;;;;4.57;2.17;;;13.10;99.50;;;;;;4145196;28;20045;-78
2023/05/10 07:23:17;;;;;;;2.37;1.90;;;13.20;99.60;;;;;;4145905;28;20556;-78
2023/05/10 07:25:18;;;;;;;2.03;1.87;;;13.50;99.30;;;;;;4145051;28;20034;-77
2023/05/10 07:27:19;;;;;;;3.40;1.60;;;13.50;99.20;;;;;;4146020;28;20042;-78
2023/05/10 07:29:21;;;;;;;2.60;1.70;;;13.30;99.20;;;;;;4144369;28;20105;-77
2023/05/10 07:31:22;;;;;;;3.50;2.27;;;13.30;99.40;;;;;;4128748;28;20038;-77
2023/05/10 07:33:23;;;;;;;1.93;1.50;;;13.30;99.20;;;;;;4144871;28;20076;-72
2023/05/10 07:35:24;;;;;;;2.80;1.77;;;13.20;99.30;;;;;;4145971;28;20521;-78
2023/05/10 07:37:25;;;;;;;3.23;1.90;;;13.20;99.50;;;;;;4145163;28;20069;-74
2023/05/10 07:39:29;;;;;;;1.70;1.60;;;13.40;99.50;;;;;;4145590;28;20038;-78
2023/05/10 07:41:30;;;;;;;4.43;1.73;;;13.70;99.40;;;;;;4144773;28;20057;-74
2023/05/10 07:43:31;;;;;;;5.03;1.50;;;13.90;99.00;;;;;;4145113;28;20123;-77
2023/05/10 07:45:33;;;;;;;2.00;1.53;;;13.60;98.90;;;;;;4145547;28;20030;-75
2023/05/10 07:47:34;;;;;;;2.03;1.67;;;13.50;98.70;;;;;;4144207;28;20038;-76
2023/05/10 07:49:35;;;;;;;2.17;1.97;;;13.30;99.00;;;;;;4145536;28;20092;-73
2023/05/10 07:51:37;;;;;;;2.77;2.13;;;13.30;99.30;;;;;;4144335;28;20046;-78
2023/05/10 07:53:38;;;;;;;1.93;1.60;;;13.60;99.40;;;;;;4145689;28;20084;-70
2023/05/10 07:55:39;;;;;;;2.37;1.70;;;13.60;99.00;;;;;;4144563;28;20089;-67
2023/05/10 07:57:42;;;;;;;1.37;1.27;;;13.50;99.30;;;;;;4145738;28;20466;-67
2023/05/10 07:59:44;;;;;;;3.43;1.50;;;13.50;99.20;;;;;;4144629;28;20026;-68
2023/05/10 08:01:45;;;;;;;3.43;2.07;;;13.30;99.30;;;;;;4145900;28;20053;-78
2023/05/10 08:03:46;;;;;;;2.47;1.57;;;13.40;99.20;;;;;;4144431;28;20091;-75
2023/05/10 08:05:47;;;;;;;1.83;1.43;;;13.30;99.20;;;;;;4145489;28;20033;-78
2023/05/10 08:07:48;;;;;;;2.60;1.40;;;13.30;99.20;;;;;;4143799;28;20034;-75
2023/05/10 08:09:50;;;;;;;2.33;1.57;;;13.40;99.20;;;;;;4144895;28;20325;-72
2023/05/10 08:11:51;;;;;;;2.43;1.43;;;13.60;99.30;;;;;;4144927;28;20488;-78
2023/05/10 08:13:52;;;;;;;1.73;1.40;;;13.90;99.40;;;;;;4144605;28;20080;-77
2023/05/10 08:15:53;;;;;;;1.70;1.10;;;14.20;98.80;;;;;;4144252;28;20038;-72
2023/05/10 08:17:54;;;;;;;2.80;1.50;;;14.30;98.60;;;;;;4144355;28;20473;-78
2023/05/10 08:19:55;;;;;;;1.40;1.20;;;14.50;98.10;;;;;;4144452;28;20049;-76
2023/05/10 08:21:57;;;;;;;1.60;0.93;;;14.50;97.60;;;;;;4143774;28;20466;-72
2023/05/10 08:23:58;;;;;;;5.87;1.73;;;14.40;97.60;;;;;;4144504;28;20022;-74
2023/05/10 08:25:59;;;;;;;1.33;1.20;;;14.10;97.80;;;;;;4143922;28;20099;-77
2023/05/10 08:28:00;;;;;;;2.23;1.77;;;14.10;98.00;;;;;;4145059;28;20100;-77
2023/05/10 08:30:02;;;;;;;1.90;1.60;;;14.10;97.60;;;;;;4143430;28;20046;-78
2023/05/10 08:32:03;;;;;;;1.70;1.30;;;13.80;97.30;;;;;;4145445;28;20030;-75
2023/05/10 08:34:04;;;;;;;1.90;1.60;;;14.00;97.40;;;;;;4144190;28;20390;-74
2023/05/10 08:36:06;;;;;;;3.93;1.67;;;13.90;97.20;;;;;;4145219;28;20088;-79
2023/05/10 08:38:07;;;;;;;4.20;1.30;;;13.80;97.50;;;;;;4143910;28;20076;-76
2023/05/10 08:40:11;;;;;;;2.20;1.30;;;13.90;96.80;;;;;;4144884;28;20434;-78
2023/05/10 08:42:16;;;;;;;3.00;1.20;;;13.80;96.70;;;;;;4143585;28;20391;-70
2023/05/10 08:44:18;;;;;;;2.10;1.30;;;13.90;96.60;;;;;;4144028;28;20041;-74
2023/05/10 08:46:21;;;;;;;1.63;0.70;;;14.00;96.50;;;;;;4144411;28;20425;-69
2023/05/10 08:48:24;;;;;;;1.20;1.10;;;14.10;95.90;;;;;;4143999;28;20548;-78
2023/05/10 08:50:25;;;;;;;1.53;1.30;;;14.10;95.70;;;;;;4144751;28;20065;-74
2023/05/10 08:52:29;;;;;;;2.03;1.10;;;14.20;95.90;;;;;;4143729;28;20092;-78
2023/05/10 08:54:32;;;;;;;1.83;1.10;;;14.30;95.90;;;;;;4144669;28;20042;-76
2023/05/10 08:56:33;;;;;;;3.37;1.30;;;14.50;95.20;;;;;;4143742;28;20030;-71
2023/05/10 08:58:34;;;;;;;3.80;1.57;;;14.50;95.40;;;;;;4144896;28;20080;-73
2023/05/10 09:00:39;;;;;;;3.93;1.73;;;14.60;95.60;;;;;;4143663;28;20572;-74
2023/05/10 09:02:42;;;;;;;1.57;0.90;;;14.70;95.60;;;;;;4144309;28;20049;-74
2023/05/10 09:04:44;;;;;;;1.90;0.90;;;14.60;93.60;;;;;;4143710;28;20042;-77
2023/05/10 09:06:45;;;;;;;1.20;0.90;;;14.80;94.60;;;;;;4144737;28;20089;-72
2023/05/10 09:08:47;;;;;;;1.27;0.80;;;15.00;94.50;;;;;;4143496;28;20088;-68
2023/05/10 09:10:48;;;;;;;1.33;0.80;;;15.10;94.30;;;;;;4144781;28;20406;-72
2023/05/10 09:12:58;;;;;;;2.77;0.90;;;15.20;94.00;;;;;;4143350;28;20053;-74
2023/05/10 09:15:00;;;;;;;0.80;0.80;;;15.30;93.80;;;;;;4144132;28;20042;-74
2023/05/10 09:17:01;;;;;;;1.43;1.20;;;15.20;93.10;;;;;;4143665;28;20072;-74
2023/05/10 09:19:03;;;;;;;3.10;1.03;;;15.20;93.40;;;;;;4144137;28;20061;-73
2023/05/10 09:21:04;;;;;;;2.30;0.70;;;15.40;93.30;;;;;;4144072;28;20076;-78
2023/05/10 09:23:05;;;;;;;1.87;0.80;;;15.20;92.60;;;;;;4143913;28;20046;-71
2023/05/10 09:25:16;;;;;;;1.73;0.70;;;15.10;92.00;;;;;;4144074;28;20018;-77
2023/05/10 09:27:26;;;;;;;0.80;0.70;;;15.20;90.70;;;;;;4143840;28;20022;-75
2023/05/10 09:29:42;;;;;;;2.65;1.48;;;15.30;91.80;;;;;;4144376;28;20451;-72
2023/05/10 09:31:54;;;;;;;1.67;0.90;;;15.30;92.00;;;;;;4144143;28;20030;-76
2023/05/10 09:33:56;;;;;;;1.50;0.90;;;15.40;92.20;;;;;;4144467;28;20030;-72
2023/05/10 09:36:07;;;;;;;3.60;0.90;;;15.30;91.50;;;;;;4146750;28;20030;-77
2023/05/10 09:38:08;;;;;;;2.70;0.82;;;15.20;91.80;;;;;;4146811;28;20923;-67
2023/05/10 09:40:23;;;;;;;1.02;0.93;;;15.20;91.80;;;;;;4146767;28;20080;-68
2023/05/10 09:42:24;;;;;;;1.77;0.97;;;15.30;92.10;;;;;;4146724;28;20364;-70
2023/05/10 09:44:26;;;;;;;3.05;0.90;;;15.50;91.20;;;;;;4146309;28;20045;-62
2023/05/10 09:46:27;;;;;;;1.98;1.10;;;15.50;90.80;;;;;;4147384;28;20041;-66
2023/05/10 09:48:29;;;;;;;1.75;0.90;;;15.50;91.10;;;;;;4146821;28;20033;-65
2023/05/10 09:50:30;;;;;;;1.33;0.95;;;15.50;91.30;;;;;;4147523;28;20068;-68
2023/05/10 09:52:45;;;;;;;3.13;1.17;;;15.50;91.10;;;;;;4145938;28;20085;-71
2023/05/10 09:54:53;;;;;;;2.95;0.60;;;15.70;90.70;;;;;;4147583;28;20552;-74
2023/05/10 09:56:55;;;;;;;2.17;0.70;;;15.70;89.00;;;;;;4146088;28;20080;-75
2023/05/10 09:59:02;;;;;;;2.35;0.90;;;15.60;90.20;;;;;;4147500;28;20385;-72
2023/05/10 10:01:04;;;;;;;3.83;1.02;;;15.70;90.50;;;;;;4146503;28;20084;-76
2023/05/10 10:03:05;;;;;;;2.47;1.00;;;15.60;90.70;;;;;;4147334;28;20084;-71
2023/05/10 10:05:07;;;;;;;2.45;0.93;;;15.60;90.30;;;;;;4146373;28;20050;-72
2023/05/10 10:07:08;;;;;;;5.20;0.82;;;15.40;90.40;;;;;;4147446;28;20030;-72
2023/05/10 10:09:09;;;;;;;2.05;0.80;;;15.30;90.50;;;;;;4146296;28;20046;-72
2023/05/10 10:11:11;;;;;;;0.85;0.80;;;15.20;90.40;;;;;;4146762;28;20042;-70
2023/05/10 10:13:12;;;;;;;4.05;1.05;;;15.10;90.50;;;;;;4146034;28;20080;-73
2023/05/10 10:15:14;;;;;;;4.97;0.75;;;15.10;90.70;;;;;;4146877;28;20052;-73
2023/05/10 10:17:15;;;;;;;0.80;0.75;;;15.20;91.10;;;;;;4146255;28;20030;-67
2023/05/10 10:19:20;;;;;;;3.10;0.93;;;15.30;90.90;;;;;;4128782;28;20112;-76
2023/05/10 10:21:22;;;;;;;1.50;0.90;;;15.30;90.80;;;;;;4129600;28;20081;-74
2023/05/10 10:23:24;;;;;;;3.80;0.98;;;15.30;90.60;;;;;;4146012;28;20475;-75
2023/05/10 10:25:25;;;;;;;1.58;0.73;;;15.40;90.40;;;;;;4147107;28;20069;-67
2023/05/10 10:27:30;;;;;;;1.58;0.63;;;15.40;90.50;;;;;;4145686;28;20080;-77
2023/05/10 10:29:59;;;;;;;1.58;0.85;;;15.50;90.90;;;;;;4147004;28;20018;-65
2023/05/10 10:32:42;;;;;;;2.95;1.30;;;15.70;90.40;;;;;;4146357;28;20100;-73
2023/05/10 10:34:43;;;;;;;2.95;0.93;;;15.80;89.30;;;;;;4079865;29;20087;-67
2023/05/10 10:36:47;;;;;;;1.33;0.80;;;15.60;89.90;;;;;;4115622;28;20038;-75
2023/05/10 10:38:48;;;;;;;3.30;0.93;;;15.60;89.30;;;;;;4145844;28;20038;-69
2023/05/10 10:41:10;;;;;;;0.90;0.90;;;15.40;88.90;;;;;;4145861;28;20088;-76
2023/05/10 10:43:28;;;;;;;2.22;0.85;;;15.40;88.00;;;;;;4145998;28;20486;-77
2023/05/10 10:45:29;;;;;;;1.90;0.50;;;15.40;88.30;;;;;;4145696;28;20425;-74